Home > Products > Valid Products > TAF

000
FTUS43 KABR 012322
TAFATY
TAF
KATY 012322Z 0200/0224 05008KT P6SM SKC
     FM020500 VRB03KT P6SM SKC=



000
FTUS43 KABR 012322
TAFMBG
TAF
KMBG 012322Z 0200/0224 VRB06KT P6SM SKC
     FM021400 27008KT P6SM SCT120=



000
FTUS43 KABR 012322
TAFPIR
TAF
KPIR 012322Z 0200/0224 29010KT P6SM FEW200
     FM020200 VRB05KT P6SM FEW250=



000
FTUS43 KABR 012322
TAFABR
TAF
KABR 012322Z 0200/0224 35007KT P6SM SKC
     FM020200 VRB05KT P6SM SKC=



000
FTUS43 KABR 012206 AAC
TAFATY
TAF AMD
KATY 012206Z 0122/0218 04011KT P6SM SKC
     FM020100 02007KT P6SM SKC
     FM020500 VRB03KT P6SM SKC=



000
FTUS43 KABR 012149 AAC
TAFABR
TAF AMD
KABR 012149Z 0122/0218 33007KT P6SM SKC
     FM020200 30006KT P6SM SKC=



000
FTUS43 KABR 012051 AAB
TAFATY
TAF AMD
KATY 012051Z 0121/0218 03012G21KT P6SM SKC
     FM020100 02007KT P6SM SKC
     FM020500 VRB03KT P6SM SKC=



000
FTUS43 KABR 011808 AAA
TAFATY
TAF AMD
KATY 011808Z 0118/0218 06016KT P6SM SKC
     FM020100 02007KT P6SM SKC
     FM020500 VRB03KT P6SM SKC=



000
FTUS43 KABR 011808 AAA
TAFATY
TAF AMD
KATY 011808Z 0118/0218 06016KT P6SM SKC
     FM020100 02007KT P6SM SKC
     FM020500 VRB03KT P6SM SKC=



000
FTUS43 KABR 011720
TAFABR
TAF
KABR 011720Z 0118/0218 03017KT P6SM SKC
     FM012100 03009KT P6SM SKC
     FM020200 30006KT P6SM SKC=



000
FTUS43 KABR 011720
TAFPIR
TAF
KPIR 011720Z 0118/0218 35010KT P6SM SKC
     FM012100 02010KT P6SM FEW200
     FM020200 30006KT P6SM FEW250=



000
FTUS43 KABR 011720
TAFMBG
TAF
KMBG 011720Z 0118/0218 03008KT P6SM SKC
     FM020100 VRB06KT P6SM SKC
     FM020900 22006KT P6SM FEW250
     FM021400 27008KT P6SM SCT120=



000
FTUS43 KABR 011720
TAFATY
TAF
KATY 011720Z 0118/0218 04017KT P6SM SKC
     FM020100 02007KT P6SM SKC
     FM020500 VRB03KT P6SM SKC=



000
FTUS43 KABR 011433 AAA
TAFABR
TAF AMD
KABR 011433Z 0115/0212 02011KT P6SM SKC
     FM020200 VRB03KT P6SM SKC=



000
FTUS43 KABR 011124
TAFATY
TAF
KATY 011124Z 0112/0212 03008KT P6SM SCT200
     FM011500 02010KT P6SM SKC
     FM020200 VRB03KT P6SM SKC=



000
FTUS43 KABR 011124
TAFPIR
TAF
KPIR 011124Z 0112/0212 VRB05KT P6SM SCT200
     FM011500 02011KT P6SM SKC
     FM020200 VRB03KT P6SM SKC=



000
FTUS43 KABR 011124
TAFMBG
TAF
KMBG 011124Z 0112/0212 VRB05KT P6SM SKC
     FM011500 03009KT P6SM SKC
     FM020200 VRB03KT P6SM SKC=



000
FTUS43 KABR 011124
TAFABR
TAF
KABR 011124Z 0112/0212 35006KT P6SM SKC
     FM011500 02011KT P6SM SKC
     FM020200 VRB03KT P6SM SKC=



000
FTUS43 KABR 010528
TAFMBG
TAF
KMBG 010528Z 0106/0206 02009KT P6SM SCT250
     FM020100 VRB03KT P6SM SKC=



000
FTUS43 KABR 010528
TAFPIR
TAF
KPIR 010528Z 0106/0206 02008KT P6SM OVC200
     FM011800 01011G17KT P6SM SCT200
     FM020100 VRB03KT P6SM SKC=



000
FTUS43 KABR 010528
TAFATY
TAF
KATY 010528Z 0106/0206 05014G20KT P6SM OVC200
     FM011400 02010KT P6SM SKC
     FM020100 VRB02KT P6SM SKC=



000
FTUS43 KABR 010528
TAFABR
TAF
KABR 010528Z 0106/0206 03007KT P6SM SCT250
     FM011400 02010KT P6SM SKC
     FM020100 VRB03KT P6SM SKC=



000
FTUS43 KABR 010418 AAB
TAFATY
TAF AMD
KATY 010418Z 0104/0124 05016KT P6SM OVC200
     FM010600 03009KT P6SM FEW200=



000
FTUS43 KABR 010418 AAB
TAFATY
TAF AMD
KATY 010418Z 0104/0124 05016KT P6SM OVC200
     FM010600 03009KT P6SM FEW200=



000
FTUS43 KABR 010117 AAA
TAFATY
TAF AMD
KATY 010117Z 0101/0124 05016KT P6SM OVC200
     FM010400 03009KT P6SM FEW200=



000
FTUS43 KABR 010117 AAA
TAFPIR
TAF AMD
KPIR 010117Z 0101/0124 05009KT P6SM OVC080
     FM010800 35010KT P6SM SCT080=



000
FTUS43 KABR 010117 AAA
TAFATY
TAF AMD
KATY 010117Z 0101/0124 05016KT P6SM OVC200
     FM010400 03009KT P6SM FEW200=



000
FTUS43 KABR 302326
TAFPIR
TAF
KPIR 302326Z 0100/0124 04019G26KT P6SM VCSH OVC060
     FM010200 02009KT P6SM OVC080
     FM010800 35010KT P6SM SCT080=



000
FTUS43 KABR 302326
TAFMBG
TAF
KMBG 302326Z 0100/0124 05017G28KT P6SM SCT050 OVC200
     FM010200 04007KT P6SM SKC=



000
FTUS43 KABR 302326
TAFABR
TAF
KABR 302326Z 0100/0124 05015G25KT P6SM OVC200
     FM010100 05014KT P6SM BKN200
     FM010300 04007KT P6SM SKC
     FM011400 02010KT P6SM SKC=



000
FTUS43 KABR 302326
TAFATY
TAF
KATY 302326Z 0100/0124 05016G25KT P6SM OVC200
     FM010400 03009KT P6SM FEW200=



000
FTUS43 KABR 302326
TAFABR
TAF
KABR 302326Z 0100/0124 05015G25KT P6SM OVC200
     FM010100 05014KT P6SM BKN200
     FM010300 04007KT P6SM SKC
     FM011400 02010KT P6SM SKC=



000
FTUS43 KABR 302326
TAFATY
TAF
KATY 302326Z 0100/0124 05016G25KT P6SM OVC200
     FM010400 03009KT P6SM FEW200=



000
FTUS43 KABR 302326
TAFPIR
TAF
KPIR 302326Z 0100/0124 04019G26KT P6SM VCSH OVC060
     FM010200 02009KT P6SM OVC080
     FM010800 35010KT P6SM SCT080=



000
FTUS43 KABR 302326
TAFMBG
TAF
KMBG 302326Z 0100/0124 05017G28KT P6SM SCT050 OVC200
     FM010200 04007KT P6SM SKC=



000
FTUS43 KABR 301734
TAFATY
TAF
KATY 301734Z 3018/0118 05016G25KT P6SM OVC200
     FM010400 03009KT P6SM FEW200=



000
FTUS43 KABR 301734
TAFABR
TAF
KABR 301734Z 3018/0118 05017G29KT P6SM OVC200
     FM010100 05014KT P6SM BKN200
     FM010300 04007KT P6SM SKC
     FM011400 02010KT P6SM SKC=



000
FTUS43 KABR 301734
TAFPIR
TAF
KPIR 301734Z 3018/0118 04019G29KT P6SM VCSH OVC050
     FM010200 02009KT P6SM OVC080
     FM010800 35010KT P6SM SCT080=



000
FTUS43 KABR 301734
TAFMBG
TAF
KMBG 301734Z 3018/0118 05017G28KT P6SM SCT050 OVC200
     FM010200 04007KT P6SM SKC=



000
FTUS43 KABR 301734
TAFATY
TAF
KATY 301734Z 3018/0118 05016G25KT P6SM OVC200
     FM010400 03009KT P6SM FEW200=



000
FTUS43 KABR 301734
TAFABR
TAF
KABR 301734Z 3018/0118 05017G29KT P6SM OVC200
     FM010100 05014KT P6SM BKN200
     FM010300 04007KT P6SM SKC
     FM011400 02010KT P6SM SKC=



000
FTUS43 KABR 301541 AAA
TAFPIR
TAF AMD
KPIR 301541Z 3016/0112 05017G24KT P6SM OVC050
     FM302000 04019G27KT P6SM VCSH OVC050
     FM010200 02009KT P6SM OVC100
     FM010800 35007KT P6SM SKC=



000
FTUS43 KABR 301533 AAA
TAFMBG
TAF AMD
KMBG 301533Z 3016/0112 05017G26KT P6SM OVC200
     FM010200 04007KT P6SM SKC=



000
FTUS43 KABR 301125
TAFMBG
TAF
KMBG 301125Z 3012/0112 02010KT P6SM OVC200
     FM301600 05019G26KT P6SM OVC200
     FM010200 04007KT P6SM SKC=



000
FTUS43 KABR 301125
TAFATY
TAF
KATY 301125Z 3012/0112 06013KT P6SM OVC200
     FM301600 05016G25KT P6SM OVC100
     FM010400 03009KT P6SM SKC=



000
FTUS43 KABR 301125
TAFPIR
TAF
KPIR 301125Z 3012/0112 03010KT P6SM OVC200
     FM301600 04016G25KT P6SM VCSH OVC050
     FM010200 02008KT P6SM OVC100
     FM010800 35007KT P6SM SKC=



000
FTUS43 KABR 301125
TAFABR
TAF
KABR 301125Z 3012/0112 05011KT P6SM BKN200
     FM301600 05017G25KT P6SM OVC200
     FM010200 36007KT P6SM SKC=



000
FTUS43 KABR 300527
TAFABR
TAF
KABR 300527Z 3006/0106 VRB05KT P6SM SCT200
     FM301600 05019G27KT P6SM BKN150
     FM010200 05012KT P6SM BKN150=



000
FTUS43 KABR 300527
TAFMBG
TAF
KMBG 300527Z 3006/0106 VRB05KT P6SM OVC150
     FM301600 06019G26KT P6SM BKN150
     FM010100 04011KT P6SM SCT250=



000
FTUS43 KABR 300527
TAFPIR
TAF
KPIR 300527Z 3006/0106 VRB05KT P6SM OVC150
     FM301600 04018G26KT P6SM VCSH OVC050
     FM010100 02011KT P6SM VCSH OVC060=



000
FTUS43 KABR 300527
TAFATY
TAF
KATY 300527Z 3006/0106 VRB05KT P6SM BKN200
     FM301600 06019G27KT P6SM BKN150
     FM010100 05013KT P6SM BKN150=



000
FTUS43 KABR 300527
TAFABR
TAF
KABR 300527Z 3006/0106 VRB05KT P6SM SCT200
     FM301600 05019G27KT P6SM BKN150
     FM010200 05012KT P6SM BKN150=



000
FTUS43 KABR 300527
TAFPIR
TAF
KPIR 300527Z 3006/0106 VRB05KT P6SM OVC150
     FM301600 04018G26KT P6SM VCSH OVC050
     FM010100 02011KT P6SM VCSH OVC060=



000
FTUS43 KABR 300527
TAFMBG
TAF
KMBG 300527Z 3006/0106 VRB05KT P6SM OVC150
     FM301600 06019G26KT P6SM BKN150
     FM010100 04011KT P6SM SCT250=



000
FTUS43 KABR 300527
TAFATY
TAF
KATY 300527Z 3006/0106 VRB05KT P6SM BKN200
     FM301600 06019G27KT P6SM BKN150
     FM010100 05013KT P6SM BKN150=



000
FTUS43 KABR 292352 CCA
TAFMBG
TAF COR
KMBG 292352Z 3000/3024 11010KT P6SM SCT060
     FM300200 09010KT P6SM SCT250
     FM301600 05019G25KT P6SM BKN150=



000
FTUS43 KABR 292347 CCA
TAFPIR
TAF COR
KPIR 292347Z 3000/3024 11010KT P6SM OVC050
     FM300800 05010KT P6SM OVC040
     FM301400 04015G23KT P6SM VCSH OVC035=



000
FTUS43 KABR 292345 CCA
TAFATY
TAF COR
KATY 292345Z 3000/3024 09007KT P6SM BKN040
     FM300300 07007KT P6SM SCT200
     FM301000 06011KT P6SM BKN150
     FM301700 06019G26KT P6SM BKN100=



000
FTUS43 KABR 292343 CCA
TAFABR
TAF COR
KABR 292343Z 3000/3024 13010KT P6SM SCT070
     FM300200 08010KT P6SM SCT200
     FM301700 05018G25KT P6SM BKN150=



000
FTUS43 KABR 292340
TAFABR
TAF
KABR 292340Z 3000/3024 13010KT P6SM SCT070
     FM300200 08010KT P6SM SCT200
     FM301700 05018G25KT P6SM SKC=



000
FTUS43 KABR 292340
TAFATY
TAF
KATY 292340Z 3000/3024 09007KT P6SM BKN040
     FM300300 07007KT P6SM SCT200
     FM301000 06011KT P6SM BKN150
     FM301700 06019KT P6SM BKN100=



000
FTUS43 KABR 292340
TAFPIR
TAF
KPIR 292340Z 3000/3024 11010KT P6SM OVC050
     FM300800 05008KT P6SM OVC060
     FM301400 04015KT P6SM VCSH OVC035=



000
FTUS43 KABR 292340
TAFMBG
TAF
KMBG 292340Z 3000/3024 11010KT P6SM SCT080
     FM301200 04011KT P6SM BKN070
     FM301800 06019KT P6SM SCT050
     FM302300 05017KT P6SM SCT150=



000
FTUS43 KABR 291953 AAB
TAFABR
TAF AMD
KABR 291953Z 2920/3018 08011KT P6SM SKC
     FM300300 03007KT P6SM OVC250
     FM301300 04015G25KT P6SM OVC200=



000
FTUS43 KABR 291908 AAA
TAFATY
TAF AMD
KATY 291908Z 2919/3018 09010KT P6SM SCT025
     FM300300 05007KT P6SM OVC250
     FM301300 05015G25KT P6SM OVC200=



000
FTUS43 KABR 291733
TAFABR
TAF
KABR 291733Z 2918/3018 08007KT P6SM SKC
     FM300300 03007KT P6SM OVC250
     FM301300 04015G25KT P6SM OVC200=



000
FTUS43 KABR 291733
TAFPIR
TAF
KPIR 291733Z 2918/3018 08013KT P6SM BKN035 BKN045
     FM300800 04012KT P6SM VCSH OVC080
     FM301100 04015G25KT P6SM OVC200=



000
FTUS43 KABR 291733
TAFMBG
TAF
KMBG 291733Z 2918/3018 04008KT P6SM SKC
     FM300500 05009KT P6SM OVC100
     FM301100 05015G25KT P6SM OVC080=



000
FTUS43 KABR 291733
TAFATY
TAF
KATY 291733Z 2918/3018 05012KT P6SM FEW025
     FM300300 05007KT P6SM OVC250
     FM301300 05015G25KT P6SM OVC200=



000
FTUS43 KABR 291710 AAC
TAFATY
TAF AMD
KATY 291710Z 2917/3012 08010KT P6SM FEW025
     FM300300 05007KT P6SM OVC250=



000
FTUS43 KABR 291710 AAC
TAFATY
TAF AMD
KATY 291710Z 2917/3012 08010KT P6SM FEW025
     FM300300 05007KT P6SM OVC250=



000
FTUS43 KABR 291547 AAB
TAFATY
TAF AMD
KATY 291547Z 2916/3012 08010KT P6SM BKN025
     FM300300 05007KT P6SM OVC250=



000
FTUS43 KABR 291516 AAB
TAFPIR
TAF AMD
KPIR 291516Z 2915/3012 10007KT P6SM FEW015 OVC090
     FM291600 08011KT P6SM OVC050
     FM300800 04012KT P6SM VCSH OVC025=



000
FTUS43 KABR 291450 AAA
TAFPIR
TAF AMD
KPIR 291450Z 2915/3012 10007KT P6SM BKN015 OVC090
     FM291600 08011KT P6SM OVC050
     FM300800 04012KT P6SM VCSH OVC025=



000
FTUS43 KABR 291450 AAA
TAFPIR
TAF AMD
KPIR 291450Z 2915/3012 10007KT P6SM BKN015 OVC090
     FM291600 08011KT P6SM OVC050
     FM300800 04012KT P6SM VCSH OVC025=



000
FTUS43 KABR 291251 AAA
TAFABR
TAF AMD
KABR 291251Z 2913/3012 17007KT P6SM SCT200
     FM291500 08009KT P6SM OVC070
     FM300300 03007KT P6SM OVC250=



000
FTUS43 KABR 291251 AAA
TAFATY
TAF AMD
KATY 291251Z 2913/3012 VRB03KT P6SM OVC110
     FM291500 08010KT P6SM BKN050
     FM300300 05007KT P6SM OVC250=



000
FTUS43 KABR 291123
TAFATY
TAF
KATY 291123Z 2912/3012 VRB03KT 3SM BR BKN110
      TEMPO 2912/2914 1SM BR
     FM291500 08010KT P6SM BKN050
     FM300300 05007KT P6SM OVC250=



000
FTUS43 KABR 291123
TAFPIR
TAF
KPIR 291123Z 2912/3012 VRB05KT P6SM OVC090
     FM291600 08011KT P6SM OVC050
     FM300800 04012KT P6SM VCSH OVC025=



000
FTUS43 KABR 291123
TAFABR
TAF
KABR 291123Z 2912/3012 VRB03KT 2SM BR SKC
      TEMPO 2912/2913 1/2SM FZFG
     FM291400 08009KT P6SM BKN070
     FM300300 03007KT P6SM OVC250=



000
FTUS43 KABR 291123
TAFMBG
TAF
KMBG 291123Z 2912/3012 VRB03KT P6SM OVC070
     FM291600 10011KT P6SM OVC050
     FM300500 05009KT P6SM OVC100=



000
FTUS43 KABR 290937 AAD
TAFABR
TAF AMD
KABR 290937Z 2910/3006 VRB03KT 3SM BR SCT110
      TEMPO 2910/2913 1SM BR
     FM291600 07007KT P6SM SCT040 BKN200
     FM300100 06007KT P6SM SCT200=



000
FTUS43 KABR 290936 AAC
TAFATY
TAF AMD
KATY 290936Z 2910/3006 VRB03KT 2SM BR BKN110
      TEMPO 2910/2913 1SM BR BKN015
     FM291600 07010KT P6SM SCT040 BKN200
     FM300100 06006KT P6SM SCT200=



000
FTUS43 KABR 290904 AAC
TAFABR
TAF AMD
KABR 290904Z 2909/3006 VRB03KT P6SM SCT110
     FM291600 07007KT P6SM SCT040 BKN200
     FM300100 06007KT P6SM SCT200=



000
FTUS43 KABR 290904 AAB
TAFATY
TAF AMD
KATY 290904Z 2909/3006 VRB03KT P6SM BKN110
     FM291600 07010KT P6SM SCT040 BKN200
     FM300100 06006KT P6SM SCT200=



000
FTUS43 KABR 290744 AAA
TAFATY
TAF AMD
KATY 290744Z 2908/3006 VRB03KT P6SM OVC025
     FM291600 07010KT P6SM SCT040 BKN200
     FM300100 06006KT P6SM SCT200=



000
FTUS43 KABR 290744 AAA
TAFATY
TAF AMD
KATY 290744Z 2908/3006 VRB03KT P6SM OVC025
     FM291600 07010KT P6SM SCT040 BKN200
     FM300100 06006KT P6SM SCT200=



000
FTUS43 KABR 290528
TAFABR
TAF
KABR 290528Z 2906/3006 VRB03KT P6SM BKN060
     FM291600 07007KT P6SM SCT040 BKN200
     FM300100 06007KT P6SM SCT200=



000
FTUS43 KABR 290528
TAFMBG
TAF
KMBG 290528Z 2906/3006 VRB03KT P6SM OVC060
     FM291600 09008KT P6SM BKN090=



000
FTUS43 KABR 290528
TAFPIR
TAF
KPIR 290528Z 2906/3006 VRB03KT P6SM OVC035
     FM291600 07010KT P6SM OVC035=



000
FTUS43 KABR 290528
TAFATY
TAF
KATY 290528Z 2906/3006 VRB03KT P6SM OVC100
     FM291600 07010KT P6SM SCT040 BKN200
     FM300100 06006KT P6SM SCT200=



000
FTUS43 KABR 290528
TAFMBG
TAF
KMBG 290528Z 2906/3006 VRB03KT P6SM OVC060
     FM291600 09008KT P6SM BKN090=



000
FTUS43 KABR 290528
TAFABR
TAF
KABR 290528Z 2906/3006 VRB03KT P6SM BKN060
     FM291600 07007KT P6SM SCT040 BKN200
     FM300100 06007KT P6SM SCT200=



000
FTUS43 KABR 290528
TAFPIR
TAF
KPIR 290528Z 2906/3006 VRB03KT P6SM OVC035
     FM291600 07010KT P6SM OVC035=



000
FTUS43 KABR 290528
TAFATY
TAF
KATY 290528Z 2906/3006 VRB03KT P6SM OVC100
     FM291600 07010KT P6SM SCT040 BKN200
     FM300100 06006KT P6SM SCT200=



    US Dept of Commerce
    National Oceanic and Atmospheric Administration
    National Weather Service
    1325 East West Highway
    Silver Spring, MD 20910
    Page Author: NWS Internet Services Team
Disclaimer
Information Quality
Credits
Glossary
Privacy Policy
Freedom of Information Act (FOIA)
About Us
Career Opportunities